sensor_id;sensor_type;location;lat;lon;timestamp;P1;durP1;ratioP1;P2;durP2;ratioP2
33952;SDS011;20231;42.710;23.280;2023-01-09T00:00:38;41.70;;;21.90;;
33952;SDS011;20231;42.710;23.280;2023-01-09T00:03:04;37.92;;;20.83;;
33952;SDS011;20231;42.710;23.280;2023-01-09T00:05:30;38.92;;;20.73;;
33952;SDS011;20231;42.710;23.280;2023-01-09T00:07:55;45.25;;;21.08;;
33952;SDS011;20231;42.710;23.280;2023-01-09T00:10:21;44.35;;;21.58;;
33952;SDS011;20231;42.710;23.280;2023-01-09T00:12:47;35.22;;;20.35;;
33952;SDS011;20231;42.710;23.280;2023-01-09T00:15:13;39.85;;;21.73;;
33952;SDS011;20231;42.710;23.280;2023-01-09T00:17:38;38.45;;;20.67;;
33952;SDS011;20231;42.710;23.280;2023-01-09T00:20:04;37.42;;;21.17;;
33952;SDS011;20231;42.710;23.280;2023-01-09T00:22:31;38.15;;;20.88;;
33952;SDS011;20231;42.710;23.280;2023-01-09T00:24:56;38.50;;;20.70;;
33952;SDS011;20231;42.710;23.280;2023-01-09T00:27:22;44.33;;;21.23;;
33952;SDS011;20231;42.710;23.280;2023-01-09T00:29:47;43.50;;;22.20;;
33952;SDS011;20231;42.710;23.280;2023-01-09T00:32:13;37.15;;;20.38;;
33952;SDS011;20231;42.710;23.280;2023-01-09T00:34:39;42.75;;;23.35;;
33952;SDS011;20231;42.710;23.280;2023-01-09T00:37:07;36.00;;;20.40;;
33952;SDS011;20231;42.710;23.280;2023-01-09T00:39:39;42.08;;;20.98;;
33952;SDS011;20231;42.710;23.280;2023-01-09T00:42:07;37.83;;;21.15;;
33952;SDS011;20231;42.710;23.280;2023-01-09T00:44:41;36.85;;;20.80;;
33952;SDS011;20231;42.710;23.280;2023-01-09T00:47:18;36.88;;;20.67;;
33952;SDS011;20231;42.710;23.280;2023-01-09T00:49:49;41.40;;;22.63;;
33952;SDS011;20231;42.710;23.280;2023-01-09T00:52:17;41.72;;;21.58;;
33952;SDS011;20231;42.710;23.280;2023-01-09T00:54:44;38.08;;;21.95;;
33952;SDS011;20231;42.710;23.280;2023-01-09T00:57:10;40.03;;;21.75;;
33952;SDS011;20231;42.710;23.280;2023-01-09T00:59:38;37.30;;;22.40;;
33952;SDS011;20231;42.710;23.280;2023-01-09T01:02:04;40.88;;;22.58;;
33952;SDS011;20231;42.710;23.280;2023-01-09T01:04:30;37.60;;;20.30;;
33952;SDS011;20231;42.710;23.280;2023-01-09T01:07:14;39.40;;;21.63;;
33952;SDS011;20231;42.710;23.280;2023-01-09T01:09:57;38.65;;;22.15;;
33952;SDS011;20231;42.710;23.280;2023-01-09T01:12:23;36.33;;;20.42;;
33952;SDS011;20231;42.710;23.280;2023-01-09T01:14:49;39.88;;;21.85;;
33952;SDS011;20231;42.710;23.280;2023-01-09T01:17:15;39.67;;;21.50;;
33952;SDS011;20231;42.710;23.280;2023-01-09T01:19:41;44.28;;;21.48;;
33952;SDS011;20231;42.710;23.280;2023-01-09T01:22:06;39.80;;;20.85;;
33952;SDS011;20231;42.710;23.280;2023-01-09T01:24:32;36.88;;;20.85;;
33952;SDS011;20231;42.710;23.280;2023-01-09T01:26:57;33.38;;;19.83;;
33952;SDS011;20231;42.710;23.280;2023-01-09T01:29:22;37.00;;;20.05;;
33952;SDS011;20231;42.710;23.280;2023-01-09T01:31:48;40.80;;;21.50;;
33952;SDS011;20231;42.710;23.280;2023-01-09T01:34:15;33.88;;;20.20;;
33952;SDS011;20231;42.710;23.280;2023-01-09T01:36:41;37.10;;;20.35;;
33952;SDS011;20231;42.710;23.280;2023-01-09T01:39:06;44.83;;;21.67;;
33952;SDS011;20231;42.710;23.280;2023-01-09T01:41:31;40.33;;;21.77;;
33952;SDS011;20231;42.710;23.280;2023-01-09T01:44:01;42.65;;;20.77;;
33952;SDS011;20231;42.710;23.280;2023-01-09T01:46:29;34.95;;;19.70;;
33952;SDS011;20231;42.710;23.280;2023-01-09T01:49:12;43.42;;;22.90;;
33952;SDS011;20231;42.710;23.280;2023-01-09T01:51:46;38.65;;;21.08;;
33952;SDS011;20231;42.710;23.280;2023-01-09T01:54:18;35.05;;;20.80;;
33952;SDS011;20231;42.710;23.280;2023-01-09T01:56:48;38.78;;;19.98;;
33952;SDS011;20231;42.710;23.280;2023-01-09T01:59:23;35.13;;;20.77;;
33952;SDS011;20231;42.710;23.280;2023-01-09T02:01:53;35.35;;;20.67;;
33952;SDS011;20231;42.710;23.280;2023-01-09T02:04:23;37.45;;;21.30;;
33952;SDS011;20231;42.710;23.280;2023-01-09T02:06:50;36.70;;;21.52;;
33952;SDS011;20231;42.710;23.280;2023-01-09T02:09:17;40.65;;;21.15;;
33952;SDS011;20231;42.710;23.280;2023-01-09T02:11:47;34.78;;;20.75;;
33952;SDS011;20231;42.710;23.280;2023-01-09T02:14:16;37.95;;;21.98;;
33952;SDS011;20231;42.710;23.280;2023-01-09T02:22:26;41.88;;;22.45;;
33952;SDS011;20231;42.710;23.280;2023-01-09T02:30:48;40.43;;;22.00;;
33952;SDS011;20231;42.710;23.280;2023-01-09T02:36:05;41.70;;;22.45;;
33952;SDS011;20231;42.710;23.280;2023-01-09T02:44:16;45.40;;;23.73;;
33952;SDS011;20231;42.710;23.280;2023-01-09T02:47:06;39.63;;;22.35;;
33952;SDS011;20231;42.710;23.280;2023-01-09T02:49:59;37.38;;;21.20;;
33952;SDS011;20231;42.710;23.280;2023-01-09T02:55:36;42.35;;;23.30;;
33952;SDS011;20231;42.710;23.280;2023-01-09T02:58:39;35.30;;;21.30;;
33952;SDS011;20231;42.710;23.280;2023-01-09T03:01:26;40.33;;;21.95;;
33952;SDS011;20231;42.710;23.280;2023-01-09T03:04:19;39.47;;;22.83;;
33952;SDS011;20231;42.710;23.280;2023-01-09T03:09:32;39.28;;;21.70;;
33952;SDS011;20231;42.710;23.280;2023-01-09T03:12:13;38.72;;;21.70;;
33952;SDS011;20231;42.710;23.280;2023-01-09T03:14:44;43.17;;;22.92;;
33952;SDS011;20231;42.710;23.280;2023-01-09T03:17:14;42.40;;;21.90;;
33952;SDS011;20231;42.710;23.280;2023-01-09T03:19:44;48.63;;;23.98;;
33952;SDS011;20231;42.710;23.280;2023-01-09T03:22:11;38.90;;;23.08;;
33952;SDS011;20231;42.710;23.280;2023-01-09T03:24:36;46.40;;;25.75;;
33952;SDS011;20231;42.710;23.280;2023-01-09T03:27:04;60.70;;;30.77;;
33952;SDS011;20231;42.710;23.280;2023-01-09T03:29:33;62.50;;;31.73;;
33952;SDS011;20231;42.710;23.280;2023-01-09T03:31:58;72.18;;;36.50;;
33952;SDS011;20231;42.710;23.280;2023-01-09T03:34:24;66.47;;;33.67;;
33952;SDS011;20231;42.710;23.280;2023-01-09T03:36:49;60.38;;;32.53;;
33952;SDS011;20231;42.710;23.280;2023-01-09T03:39:15;60.80;;;31.48;;
33952;SDS011;20231;42.710;23.280;2023-01-09T03:41:40;60.83;;;31.73;;
33952;SDS011;20231;42.710;23.280;2023-01-09T03:44:06;63.83;;;32.78;;
33952;SDS011;20231;42.710;23.280;2023-01-09T03:46:31;69.68;;;31.73;;
33952;SDS011;20231;42.710;23.280;2023-01-09T03:48:57;53.45;;;27.25;;
33952;SDS011;20231;42.710;23.280;2023-01-09T03:51:22;47.30;;;26.77;;
33952;SDS011;20231;42.710;23.280;2023-01-09T03:53:47;61.83;;;32.38;;
33952;SDS011;20231;42.710;23.280;2023-01-09T03:56:13;57.47;;;32.10;;
33952;SDS011;20231;42.710;23.280;2023-01-09T03:58:39;53.08;;;26.95;;
33952;SDS011;20231;42.710;23.280;2023-01-09T04:01:04;52.08;;;27.75;;
33952;SDS011;20231;42.710;23.280;2023-01-09T04:03:33;56.60;;;29.95;;
33952;SDS011;20231;42.710;23.280;2023-01-09T04:05:58;51.70;;;29.17;;
33952;SDS011;20231;42.710;23.280;2023-01-09T04:08:24;53.30;;;30.10;;
33952;SDS011;20231;42.710;23.280;2023-01-09T04:10:49;47.70;;;27.42;;
33952;SDS011;20231;42.710;23.280;2023-01-09T04:13:15;58.97;;;28.73;;
33952;SDS011;20231;42.710;23.280;2023-01-09T04:15:40;47.75;;;26.67;;
33952;SDS011;20231;42.710;23.280;2023-01-09T04:18:06;45.17;;;24.70;;
33952;SDS011;20231;42.710;23.280;2023-01-09T04:20:31;46.17;;;26.55;;
33952;SDS011;20231;42.710;23.280;2023-01-09T04:22:57;55.30;;;27.33;;
33952;SDS011;20231;42.710;23.280;2023-01-09T04:25:23;52.63;;;29.27;;
33952;SDS011;20231;42.710;23.280;2023-01-09T04:27:49;56.60;;;28.80;;
33952;SDS011;20231;42.710;23.280;2023-01-09T04:30:15;64.25;;;29.65;;
33952;SDS011;20231;42.710;23.280;2023-01-09T04:32:40;59.17;;;31.13;;
33952;SDS011;20231;42.710;23.280;2023-01-09T04:35:06;57.42;;;29.55;;
33952;SDS011;20231;42.710;23.280;2023-01-09T04:37:32;51.83;;;29.25;;
33952;SDS011;20231;42.710;23.280;2023-01-09T04:39:57;55.80;;;29.33;;
33952;SDS011;20231;42.710;23.280;2023-01-09T04:42:23;58.70;;;29.25;;
33952;SDS011;20231;42.710;23.280;2023-01-09T04:44:48;50.22;;;28.30;;
33952;SDS011;20231;42.710;23.280;2023-01-09T04:47:17;56.28;;;31.23;;
33952;SDS011;20231;42.710;23.280;2023-01-09T04:49:43;57.47;;;29.10;;
33952;SDS011;20231;42.710;23.280;2023-01-09T04:52:09;56.83;;;30.95;;
33952;SDS011;20231;42.710;23.280;2023-01-09T04:54:34;52.10;;;28.63;;
33952;SDS011;20231;42.710;23.280;2023-01-09T04:57:00;45.90;;;26.30;;
33952;SDS011;20231;42.710;23.280;2023-01-09T04:59:25;53.92;;;27.25;;
33952;SDS011;20231;42.710;23.280;2023-01-09T05:01:50;49.65;;;26.08;;
33952;SDS011;20231;42.710;23.280;2023-01-09T05:04:18;48.22;;;26.45;;
33952;SDS011;20231;42.710;23.280;2023-01-09T05:06:44;44.08;;;27.20;;
33952;SDS011;20231;42.710;23.280;2023-01-09T05:09:09;52.13;;;24.98;;
33952;SDS011;20231;42.710;23.280;2023-01-09T05:11:35;47.20;;;26.52;;
33952;SDS011;20231;42.710;23.280;2023-01-09T05:14:00;48.15;;;25.85;;
33952;SDS011;20231;42.710;23.280;2023-01-09T05:16:25;46.08;;;26.05;;
33952;SDS011;20231;42.710;23.280;2023-01-09T05:18:51;43.92;;;25.67;;
33952;SDS011;20231;42.710;23.280;2023-01-09T05:21:20;45.78;;;25.13;;
33952;SDS011;20231;42.710;23.280;2023-01-09T05:23:46;48.58;;;25.63;;
33952;SDS011;20231;42.710;23.280;2023-01-09T05:26:12;49.97;;;27.00;;
33952;SDS011;20231;42.710;23.280;2023-01-09T05:28:37;47.83;;;27.00;;
33952;SDS011;20231;42.710;23.280;2023-01-09T05:31:03;47.75;;;25.27;;
33952;SDS011;20231;42.710;23.280;2023-01-09T05:33:29;49.83;;;26.30;;
33952;SDS011;20231;42.710;23.280;2023-01-09T05:35:54;42.83;;;24.75;;
33952;SDS011;20231;42.710;23.280;2023-01-09T05:38:19;45.88;;;25.30;;
33952;SDS011;20231;42.710;23.280;2023-01-09T05:40:45;45.78;;;24.98;;
33952;SDS011;20231;42.710;23.280;2023-01-09T05:43:11;45.03;;;26.40;;
33952;SDS011;20231;42.710;23.280;2023-01-09T05:45:36;49.67;;;26.25;;
33952;SDS011;20231;42.710;23.280;2023-01-09T05:48:02;44.47;;;24.83;;
33952;SDS011;20231;42.710;23.280;2023-01-09T05:50:27;48.50;;;26.08;;
33952;SDS011;20231;42.710;23.280;2023-01-09T05:52:53;63.60;;;26.90;;
33952;SDS011;20231;42.710;23.280;2023-01-09T05:55:18;48.30;;;25.67;;
33952;SDS011;20231;42.710;23.280;2023-01-09T05:57:44;44.08;;;25.58;;
33952;SDS011;20231;42.710;23.280;2023-01-09T06:00:10;45.05;;;25.65;;
33952;SDS011;20231;42.710;23.280;2023-01-09T06:02:35;50.10;;;24.70;;
33952;SDS011;20231;42.710;23.280;2023-01-09T06:05:01;51.15;;;25.60;;
33952;SDS011;20231;42.710;23.280;2023-01-09T06:07:26;50.80;;;27.10;;
33952;SDS011;20231;42.710;23.280;2023-01-09T06:09:52;47.30;;;26.20;;
33952;SDS011;20231;42.710;23.280;2023-01-09T06:12:17;116.00;;;45.53;;
33952;SDS011;20231;42.710;23.280;2023-01-09T06:14:42;57.53;;;29.45;;
33952;SDS011;20231;42.710;23.280;2023-01-09T06:17:08;50.75;;;26.77;;
33952;SDS011;20231;42.710;23.280;2023-01-09T06:19:34;45.08;;;25.50;;
33952;SDS011;20231;42.710;23.280;2023-01-09T06:21:59;53.72;;;26.80;;
33952;SDS011;20231;42.710;23.280;2023-01-09T06:24:25;41.72;;;25.17;;
33952;SDS011;20231;42.710;23.280;2023-01-09T06:26:50;56.92;;;27.30;;
33952;SDS011;20231;42.710;23.280;2023-01-09T06:29:16;43.90;;;25.15;;
33952;SDS011;20231;42.710;23.280;2023-01-09T06:31:41;47.20;;;29.92;;
33952;SDS011;20231;42.710;23.280;2023-01-09T06:34:06;51.42;;;30.90;;
33952;SDS011;20231;42.710;23.280;2023-01-09T06:36:32;54.65;;;34.33;;
33952;SDS011;20231;42.710;23.280;2023-01-09T06:38:58;66.75;;;39.15;;
33952;SDS011;20231;42.710;23.280;2023-01-09T06:41:23;81.38;;;45.97;;
33952;SDS011;20231;42.710;23.280;2023-01-09T06:43:48;120.65;;;62.25;;
33952;SDS011;20231;42.710;23.280;2023-01-09T06:46:14;121.93;;;65.43;;
33952;SDS011;20231;42.710;23.280;2023-01-09T06:48:39;123.28;;;67.70;;
33952;SDS011;20231;42.710;23.280;2023-01-09T06:51:04;125.80;;;66.97;;
33952;SDS011;20231;42.710;23.280;2023-01-09T06:53:30;143.73;;;77.53;;
33952;SDS011;20231;42.710;23.280;2023-01-09T06:55:55;167.88;;;91.60;;
33952;SDS011;20231;42.710;23.280;2023-01-09T06:58:20;158.27;;;86.85;;
33952;SDS011;20231;42.710;23.280;2023-01-09T07:00:46;164.27;;;86.47;;
33952;SDS011;20231;42.710;23.280;2023-01-09T07:03:13;133.60;;;72.00;;
33952;SDS011;20231;42.710;23.280;2023-01-09T07:05:44;125.38;;;69.80;;
33952;SDS011;20231;42.710;23.280;2023-01-09T07:08:10;96.03;;;47.92;;
33952;SDS011;20231;42.710;23.280;2023-01-09T07:10:35;86.63;;;47.00;;
33952;SDS011;20231;42.710;23.280;2023-01-09T07:13:00;65.57;;;38.72;;
33952;SDS011;20231;42.710;23.280;2023-01-09T07:15:26;66.38;;;37.72;;
33952;SDS011;20231;42.710;23.280;2023-01-09T07:17:51;75.30;;;39.60;;
33952;SDS011;20231;42.710;23.280;2023-01-09T07:20:18;74.50;;;41.55;;
33952;SDS011;20231;42.710;23.280;2023-01-09T07:22:44;73.78;;;41.63;;
33952;SDS011;20231;42.710;23.280;2023-01-09T07:25:10;75.20;;;40.88;;
33952;SDS011;20231;42.710;23.280;2023-01-09T07:27:35;79.05;;;42.03;;
33952;SDS011;20231;42.710;23.280;2023-01-09T07:30:01;69.85;;;39.90;;
33952;SDS011;20231;42.710;23.280;2023-01-09T07:32:27;71.40;;;41.22;;
33952;SDS011;20231;42.710;23.280;2023-01-09T07:34:53;70.40;;;37.67;;
33952;SDS011;20231;42.710;23.280;2023-01-09T07:37:18;71.05;;;37.45;;
33952;SDS011;20231;42.710;23.280;2023-01-09T07:39:43;61.60;;;36.53;;
33952;SDS011;20231;42.710;23.280;2023-01-09T07:42:09;69.00;;;39.15;;
33952;SDS011;20231;42.710;23.280;2023-01-09T07:44:35;71.63;;;38.00;;
33952;SDS011;20231;42.710;23.280;2023-01-09T07:47:00;64.82;;;38.53;;
33952;SDS011;20231;42.710;23.280;2023-01-09T07:49:26;67.47;;;39.08;;
33952;SDS011;20231;42.710;23.280;2023-01-09T07:51:51;76.30;;;40.60;;
33952;SDS011;20231;42.710;23.280;2023-01-09T07:54:17;73.25;;;40.90;;
33952;SDS011;20231;42.710;23.280;2023-01-09T07:56:42;70.35;;;40.95;;
33952;SDS011;20231;42.710;23.280;2023-01-09T07:59:07;73.45;;;41.83;;
33952;SDS011;20231;42.710;23.280;2023-01-09T08:01:33;76.22;;;41.90;;
33952;SDS011;20231;42.710;23.280;2023-01-09T08:03:58;84.90;;;47.05;;
33952;SDS011;20231;42.710;23.280;2023-01-09T08:06:24;103.10;;;57.58;;
33952;SDS011;20231;42.710;23.280;2023-01-09T08:08:49;149.77;;;82.43;;
33952;SDS011;20231;42.710;23.280;2023-01-09T08:11:15;214.32;;;120.95;;
33952;SDS011;20231;42.710;23.280;2023-01-09T08:13:40;200.90;;;114.78;;
33952;SDS011;20231;42.710;23.280;2023-01-09T08:16:05;168.05;;;97.07;;
33952;SDS011;20231;42.710;23.280;2023-01-09T08:18:31;147.13;;;84.25;;
33952;SDS011;20231;42.710;23.280;2023-01-09T08:20:57;148.55;;;82.88;;
33952;SDS011;20231;42.710;23.280;2023-01-09T08:23:22;145.45;;;80.60;;
33952;SDS011;20231;42.710;23.280;2023-01-09T08:25:48;127.95;;;68.10;;
33952;SDS011;20231;42.710;23.280;2023-01-09T08:28:13;116.63;;;62.38;;
33952;SDS011;20231;42.710;23.280;2023-01-09T08:30:38;92.80;;;54.65;;
33952;SDS011;20231;42.710;23.280;2023-01-09T08:33:04;98.35;;;52.42;;
33952;SDS011;20231;42.710;23.280;2023-01-09T08:35:29;91.50;;;49.40;;
33952;SDS011;20231;42.710;23.280;2023-01-09T08:37:55;90.28;;;47.53;;
33952;SDS011;20231;42.710;23.280;2023-01-09T08:40:20;79.47;;;44.67;;
33952;SDS011;20231;42.710;23.280;2023-01-09T08:42:46;80.32;;;45.42;;
33952;SDS011;20231;42.710;23.280;2023-01-09T08:45:29;77.03;;;43.90;;
33952;SDS011;20231;42.710;23.280;2023-01-09T08:48:14;69.63;;;42.47;;
33952;SDS011;20231;42.710;23.280;2023-01-09T08:50:40;73.43;;;41.83;;
33952;SDS011;20231;42.710;23.280;2023-01-09T08:53:07;69.53;;;40.65;;
33952;SDS011;20231;42.710;23.280;2023-01-09T08:55:33;84.00;;;43.80;;
33952;SDS011;20231;42.710;23.280;2023-01-09T08:57:58;81.10;;;42.38;;
33952;SDS011;20231;42.710;23.280;2023-01-09T09:00:23;69.28;;;39.90;;
33952;SDS011;20231;42.710;23.280;2023-01-09T09:02:50;87.30;;;42.83;;
33952;SDS011;20231;42.710;23.280;2023-01-09T09:05:16;81.93;;;40.72;;
33952;SDS011;20231;42.710;23.280;2023-01-09T09:07:42;79.85;;;43.53;;
33952;SDS011;20231;42.710;23.280;2023-01-09T09:10:07;84.68;;;42.13;;
33952;SDS011;20231;42.710;23.280;2023-01-09T09:12:33;76.80;;;42.13;;
33952;SDS011;20231;42.710;23.280;2023-01-09T09:14:59;84.43;;;44.22;;
33952;SDS011;20231;42.710;23.280;2023-01-09T09:17:36;84.32;;;42.35;;
33952;SDS011;20231;42.710;23.280;2023-01-09T09:20:02;76.20;;;42.88;;
33952;SDS011;20231;42.710;23.280;2023-01-09T09:22:28;80.60;;;45.22;;
33952;SDS011;20231;42.710;23.280;2023-01-09T09:24:54;85.80;;;44.45;;
33952;SDS011;20231;42.710;23.280;2023-01-09T09:27:20;79.57;;;41.58;;
33952;SDS011;20231;42.710;23.280;2023-01-09T09:29:45;98.32;;;42.10;;
33952;SDS011;20231;42.710;23.280;2023-01-09T09:32:11;84.85;;;43.70;;
33952;SDS011;20231;42.710;23.280;2023-01-09T09:34:36;81.68;;;42.25;;
33952;SDS011;20231;42.710;23.280;2023-01-09T09:37:02;79.40;;;41.20;;
33952;SDS011;20231;42.710;23.280;2023-01-09T09:39:27;78.00;;;39.95;;
33952;SDS011;20231;42.710;23.280;2023-01-09T09:45:37;67.18;;;36.78;;
33952;SDS011;20231;42.710;23.280;2023-01-09T09:56:17;68.57;;;36.58;;
33952;SDS011;20231;42.710;23.280;2023-01-09T09:59:19;72.65;;;37.13;;
33952;SDS011;20231;42.710;23.280;2023-01-09T10:01:49;57.65;;;29.48;;
33952;SDS011;20231;42.710;23.280;2023-01-09T10:04:19;43.35;;;24.25;;
33952;SDS011;20231;42.710;23.280;2023-01-09T10:06:48;46.70;;;23.67;;
33952;SDS011;20231;42.710;23.280;2023-01-09T10:14:53;47.70;;;21.58;;
33952;SDS011;20231;42.710;23.280;2023-01-09T10:20:18;37.38;;;21.30;;
33952;SDS011;20231;42.710;23.280;2023-01-09T10:26:01;34.95;;;19.83;;
33952;SDS011;20231;42.710;23.280;2023-01-09T10:33:53;41.03;;;22.85;;
33952;SDS011;20231;42.710;23.280;2023-01-09T10:39:33;46.08;;;23.98;;
33952;SDS011;20231;42.710;23.280;2023-01-09T10:42:08;45.83;;;25.38;;
33952;SDS011;20231;42.710;23.280;2023-01-09T10:45:40;46.97;;;24.75;;
33952;SDS011;20231;42.710;23.280;2023-01-09T10:47:57;43.05;;;24.02;;
33952;SDS011;20231;42.710;23.280;2023-01-09T10:50:30;40.25;;;24.38;;
33952;SDS011;20231;42.710;23.280;2023-01-09T10:53:00;48.17;;;23.08;;
33952;SDS011;20231;42.710;23.280;2023-01-09T10:55:41;44.45;;;23.70;;
33952;SDS011;20231;42.710;23.280;2023-01-09T10:58:12;41.83;;;22.95;;
33952;SDS011;20231;42.710;23.280;2023-01-09T11:00:38;39.55;;;19.10;;
33952;SDS011;20231;42.710;23.280;2023-01-09T11:03:04;37.45;;;20.85;;
33952;SDS011;20231;42.710;23.280;2023-01-09T11:05:30;31.05;;;17.60;;
33952;SDS011;20231;42.710;23.280;2023-01-09T11:10:46;32.63;;;17.20;;
33952;SDS011;20231;42.710;23.280;2023-01-09T11:13:18;34.13;;;17.85;;
33952;SDS011;20231;42.710;23.280;2023-01-09T11:16:23;38.20;;;18.75;;
33952;SDS011;20231;42.710;23.280;2023-01-09T11:18:47;31.85;;;17.05;;
33952;SDS011;20231;42.710;23.280;2023-01-09T11:21:48;27.27;;;16.77;;
33952;SDS011;20231;42.710;23.280;2023-01-09T11:26:50;32.97;;;18.08;;
33952;SDS011;20231;42.710;23.280;2023-01-09T11:29:17;34.45;;;17.67;;
33952;SDS011;20231;42.710;23.280;2023-01-09T11:31:54;31.67;;;17.35;;
33952;SDS011;20231;42.710;23.280;2023-01-09T11:34:32;40.72;;;18.77;;
33952;SDS011;20231;42.710;23.280;2023-01-09T11:37:01;34.78;;;17.85;;
33952;SDS011;20231;42.710;23.280;2023-01-09T11:39:28;29.05;;;16.20;;
33952;SDS011;20231;42.710;23.280;2023-01-09T11:42:03;29.50;;;17.30;;
33952;SDS011;20231;42.710;23.280;2023-01-09T11:44:30;34.60;;;16.85;;
33952;SDS011;20231;42.710;23.280;2023-01-09T11:46:57;28.63;;;16.67;;
33952;SDS011;20231;42.710;23.280;2023-01-09T11:49:24;27.55;;;16.08;;
33952;SDS011;20231;42.710;23.280;2023-01-09T11:54:29;40.78;;;17.25;;
33952;SDS011;20231;42.710;23.280;2023-01-09T11:56:58;29.52;;;15.88;;
33952;SDS011;20231;42.710;23.280;2023-01-09T11:59:25;31.13;;;17.17;;
33952;SDS011;20231;42.710;23.280;2023-01-09T12:04:37;30.98;;;16.48;;
33952;SDS011;20231;42.710;23.280;2023-01-09T12:07:21;36.30;;;17.88;;
33952;SDS011;20231;42.710;23.280;2023-01-09T12:16:07;34.35;;;17.05;;
33952;SDS011;20231;42.710;23.280;2023-01-09T12:18:44;29.75;;;16.38;;
33952;SDS011;20231;42.710;23.280;2023-01-09T12:26:44;30.30;;;16.33;;
33952;SDS011;20231;42.710;23.280;2023-01-09T12:29:31;28.25;;;15.60;;
33952;SDS011;20231;42.710;23.280;2023-01-09T12:35:21;26.52;;;15.45;;
33952;SDS011;20231;42.710;23.280;2023-01-09T12:46:23;31.55;;;16.42;;
33952;SDS011;20231;42.710;23.280;2023-01-09T12:51:31;30.88;;;16.90;;
33952;SDS011;20231;42.710;23.280;2023-01-09T12:54:25;33.38;;;16.73;;
33952;SDS011;20231;42.710;23.280;2023-01-09T12:59:57;35.15;;;16.08;;
33952;SDS011;20231;42.710;23.280;2023-01-09T13:03:11;27.23;;;15.15;;
33952;SDS011;20231;42.710;23.280;2023-01-09T13:05:22;29.20;;;14.60;;
33952;SDS011;20231;42.710;23.280;2023-01-09T13:07:55;26.23;;;16.42;;
33952;SDS011;20231;42.710;23.280;2023-01-09T13:10:29;28.95;;;15.13;;
33952;SDS011;20231;42.710;23.280;2023-01-09T13:12:57;28.77;;;14.38;;
33952;SDS011;20231;42.710;23.280;2023-01-09T13:18:15;26.42;;;16.00;;
33952;SDS011;20231;42.710;23.280;2023-01-09T13:20:52;30.75;;;16.55;;
33952;SDS011;20231;42.710;23.280;2023-01-09T13:25:56;27.80;;;15.82;;
33952;SDS011;20231;42.710;23.280;2023-01-09T13:28:41;530.97;;;225.40;;
33952;SDS011;20231;42.710;23.280;2023-01-09T13:34:01;39.72;;;20.08;;
33952;SDS011;20231;42.710;23.280;2023-01-09T13:36:35;35.42;;;20.08;;
33952;SDS011;20231;42.710;23.280;2023-01-09T13:39:02;31.95;;;18.42;;
33952;SDS011;20231;42.710;23.280;2023-01-09T13:41:29;37.22;;;18.75;;
33952;SDS011;20231;42.710;23.280;2023-01-09T13:44:24;37.55;;;18.63;;
33952;SDS011;20231;42.710;23.280;2023-01-09T13:46:53;37.35;;;19.30;;
33952;SDS011;20231;42.710;23.280;2023-01-09T13:51:58;32.05;;;17.35;;
33952;SDS011;20231;42.710;23.280;2023-01-09T13:54:58;34.85;;;17.33;;
33952;SDS011;20231;42.710;23.280;2023-01-09T13:59:47;26.33;;;15.13;;
33952;SDS011;20231;42.710;23.280;2023-01-09T14:04:57;29.13;;;14.82;;
33952;SDS011;20231;42.710;23.280;2023-01-09T14:07:24;26.95;;;15.10;;
33952;SDS011;20231;42.710;23.280;2023-01-09T14:09:56;30.38;;;15.80;;
33952;SDS011;20231;42.710;23.280;2023-01-09T14:12:23;25.60;;;15.05;;
33952;SDS011;20231;42.710;23.280;2023-01-09T14:14:51;28.40;;;15.25;;
33952;SDS011;20231;42.710;23.280;2023-01-09T14:17:32;27.35;;;15.18;;
33952;SDS011;20231;42.710;23.280;2023-01-09T14:20:02;29.40;;;15.00;;
33952;SDS011;20231;42.710;23.280;2023-01-09T14:22:32;29.38;;;14.32;;
33952;SDS011;20231;42.710;23.280;2023-01-09T14:25:09;27.50;;;14.85;;
33952;SDS011;20231;42.710;23.280;2023-01-09T14:38:42;28.98;;;15.30;;
33952;SDS011;20231;42.710;23.280;2023-01-09T14:41:22;27.30;;;14.65;;
33952;SDS011;20231;42.710;23.280;2023-01-09T14:49:44;31.20;;;15.38;;
33952;SDS011;20231;42.710;23.280;2023-01-09T14:54:54;26.38;;;14.02;;
33952;SDS011;20231;42.710;23.280;2023-01-09T14:57:27;26.30;;;14.00;;
33952;SDS011;20231;42.710;23.280;2023-01-09T14:59:55;31.05;;;15.52;;
33952;SDS011;20231;42.710;23.280;2023-01-09T15:02:26;28.60;;;14.68;;
33952;SDS011;20231;42.710;23.280;2023-01-09T15:04:55;23.90;;;14.50;;
33952;SDS011;20231;42.710;23.280;2023-01-09T15:07:24;25.35;;;14.63;;
33952;SDS011;20231;42.710;23.280;2023-01-09T15:09:58;26.58;;;14.63;;
33952;SDS011;20231;42.710;23.280;2023-01-09T15:12:26;26.67;;;14.95;;
33952;SDS011;20231;42.710;23.280;2023-01-09T15:14:53;25.63;;;13.80;;
33952;SDS011;20231;42.710;23.280;2023-01-09T15:17:26;29.05;;;14.55;;
33952;SDS011;20231;42.710;23.280;2023-01-09T15:19:55;28.35;;;13.30;;
33952;SDS011;20231;42.710;23.280;2023-01-09T15:22:32;24.40;;;13.20;;
33952;SDS011;20231;42.710;23.280;2023-01-09T15:25:11;26.13;;;13.63;;
33952;SDS011;20231;42.710;23.280;2023-01-09T15:27:48;29.27;;;15.07;;
33952;SDS011;20231;42.710;23.280;2023-01-09T15:30:15;27.65;;;14.50;;
33952;SDS011;20231;42.710;23.280;2023-01-09T15:32:45;27.63;;;15.05;;
33952;SDS011;20231;42.710;23.280;2023-01-09T15:35:13;25.88;;;14.63;;
33952;SDS011;20231;42.710;23.280;2023-01-09T15:37:40;27.75;;;14.23;;
33952;SDS011;20231;42.710;23.280;2023-01-09T15:40:06;30.88;;;17.08;;
33952;SDS011;20231;42.710;23.280;2023-01-09T15:42:41;30.42;;;15.50;;
33952;SDS011;20231;42.710;23.280;2023-01-09T15:47:50;35.30;;;15.02;;
33952;SDS011;20231;42.710;23.280;2023-01-09T15:50:17;26.65;;;15.32;;
33952;SDS011;20231;42.710;23.280;2023-01-09T15:52:51;26.60;;;15.43;;
33952;SDS011;20231;42.710;23.280;2023-01-09T15:55:30;26.02;;;15.23;;
33952;SDS011;20231;42.710;23.280;2023-01-09T15:58:01;30.83;;;15.82;;
33952;SDS011;20231;42.710;23.280;2023-01-09T16:02:53;28.90;;;15.32;;
33952;SDS011;20231;42.710;23.280;2023-01-09T16:05:38;29.88;;;16.17;;
33952;SDS011;20231;42.710;23.280;2023-01-09T16:08:22;33.33;;;17.13;;
33952;SDS011;20231;42.710;23.280;2023-01-09T16:10:54;32.05;;;16.88;;
33952;SDS011;20231;42.710;23.280;2023-01-09T16:13:27;28.92;;;15.32;;
33952;SDS011;20231;42.710;23.280;2023-01-09T16:15:56;35.65;;;20.17;;
33952;SDS011;20231;42.710;23.280;2023-01-09T16:18:32;28.38;;;16.60;;
33952;SDS011;20231;42.710;23.280;2023-01-09T16:21:43;33.10;;;17.23;;
33952;SDS011;20231;42.710;23.280;2023-01-09T16:23:59;33.20;;;16.92;;
33952;SDS011;20231;42.710;23.280;2023-01-09T16:26:37;28.65;;;17.00;;
33952;SDS011;20231;42.710;23.280;2023-01-09T16:31:56;34.47;;;19.23;;
33952;SDS011;20231;42.710;23.280;2023-01-09T16:34:23;36.47;;;18.85;;
33952;SDS011;20231;42.710;23.280;2023-01-09T16:36:48;34.38;;;20.02;;
33952;SDS011;20231;42.710;23.280;2023-01-09T16:39:16;39.80;;;20.40;;
33952;SDS011;20231;42.710;23.280;2023-01-09T16:41:42;31.98;;;18.90;;